sensor_id;sensor_type;location;lat;lon;timestamp;pressure;altitude;pressure_sealevel;temperature;humidity
66486;BME280;53303;47.476;8.084;2023-03-13T00:01:33;94988.59;;;19.36;38.33
66486;BME280;53303;47.476;8.084;2023-03-13T00:03:59;94955.31;;;19.12;38.58
66486;BME280;53303;47.476;8.084;2023-03-13T00:06:28;94993.88;;;19.40;38.78
66486;BME280;53303;47.476;8.084;2023-03-13T00:08:56;94971.81;;;19.29;38.57
66486;BME280;53303;47.476;8.084;2023-03-13T00:11:24;94991.09;;;19.40;38.64
66486;BME280;53303;47.476;8.084;2023-03-13T00:13:56;94986.31;;;19.40;38.62
66486;BME280;53303;47.476;8.084;2023-03-13T00:16:22;94990.41;;;19.28;38.79
66486;BME280;53303;47.476;8.084;2023-03-13T00:18:50;94987.88;;;19.36;38.70
66486;BME280;53303;47.476;8.084;2023-03-13T00:21:17;94977.78;;;19.38;38.58
66486;BME280;53303;47.476;8.084;2023-03-13T00:23:44;94979.81;;;19.38;38.65
66486;BME280;53303;47.476;8.084;2023-03-13T00:26:12;94961.00;;;19.31;38.76
66486;BME280;53303;47.476;8.084;2023-03-13T00:28:39;94968.97;;;19.40;38.50
66486;BME280;53303;47.476;8.084;2023-03-13T00:33:35;94957.44;;;19.30;38.43
66486;BME280;53303;47.476;8.084;2023-03-13T00:36:03;94983.03;;;19.42;38.60
66486;BME280;53303;47.476;8.084;2023-03-13T00:38:30;94956.94;;;19.32;38.54
66486;BME280;53303;47.476;8.084;2023-03-13T00:41:07;94968.22;;;19.39;38.31
66486;BME280;53303;47.476;8.084;2023-03-13T00:43:34;94966.94;;;19.40;38.50
66486;BME280;53303;47.476;8.084;2023-03-13T00:46:03;94948.88;;;19.34;38.46
66486;BME280;53303;47.476;8.084;2023-03-13T00:48:29;94957.38;;;19.42;38.53
66486;BME280;53303;47.476;8.084;2023-03-13T00:50:55;94941.91;;;19.27;38.49
66486;BME280;53303;47.476;8.084;2023-03-13T00:53:20;94957.38;;;19.42;38.45
66486;BME280;53303;47.476;8.084;2023-03-13T00:55:53;94951.84;;;19.42;38.41
66486;BME280;53303;47.476;8.084;2023-03-13T00:58:19;94947.63;;;19.35;38.46
66486;BME280;53303;47.476;8.084;2023-03-13T01:00:44;94947.81;;;19.43;38.50
66486;BME280;53303;47.476;8.084;2023-03-13T01:03:10;94949.09;;;19.42;38.34
66486;BME280;53303;47.476;8.084;2023-03-13T01:05:36;94952.59;;;19.42;38.37
66486;BME280;53303;47.476;8.084;2023-03-13T01:08:01;94948.41;;;19.30;38.44
66486;BME280;53303;47.476;8.084;2023-03-13T01:10:27;94942.28;;;19.43;38.48
66486;BME280;53303;47.476;8.084;2023-03-13T01:12:52;94914.78;;;19.20;38.30
66486;BME280;53303;47.476;8.084;2023-03-13T01:15:18;94951.84;;;19.42;38.49
66486;BME280;53303;47.476;8.084;2023-03-13T01:17:44;94930.56;;;19.31;38.40
66486;BME280;53303;47.476;8.084;2023-03-13T01:20:10;94941.06;;;19.38;38.25
66486;BME280;53303;47.476;8.084;2023-03-13T01:22:36;94936.75;;;19.43;38.49
66486;BME280;53303;47.476;8.084;2023-03-13T01:25:02;94938.25;;;19.44;38.47
66486;BME280;53303;47.476;8.084;2023-03-13T01:27:28;94935.50;;;19.44;38.35
66486;BME280;53303;47.476;8.084;2023-03-13T01:29:53;94911.94;;;19.31;38.31
66486;BME280;53303;47.476;8.084;2023-03-13T01:32:19;94926.19;;;19.41;38.33
66486;BME280;53303;47.476;8.084;2023-03-13T01:34:44;94887.88;;;19.20;38.27
66486;BME280;53303;47.476;8.084;2023-03-13T01:37:10;94866.88;;;19.06;38.29
66486;BME280;53303;47.476;8.084;2023-03-13T01:39:35;94914.59;;;19.43;38.37
66486;BME280;53303;47.476;8.084;2023-03-13T01:42:03;94910.59;;;19.44;38.16
66486;BME280;53303;47.476;8.084;2023-03-13T01:44:28;94868.28;;;19.18;38.27
66486;BME280;53303;47.476;8.084;2023-03-13T01:46:54;94892.28;;;19.35;38.21
66486;BME280;53303;47.476;8.084;2023-03-13T01:49:28;94888.56;;;19.32;38.21
66486;BME280;53303;47.476;8.084;2023-03-13T01:51:57;94907.31;;;19.45;38.30
66486;BME280;53303;47.476;8.084;2023-03-13T01:54:28;94900.53;;;19.40;38.33
66486;BME280;53303;47.476;8.084;2023-03-13T01:57:12;94886.19;;;19.42;38.21
66486;BME280;53303;47.476;8.084;2023-03-13T01:59:43;94884.94;;;19.43;38.21
66486;BME280;53303;47.476;8.084;2023-03-13T02:02:14;94878.88;;;19.45;38.16
66486;BME280;53303;47.476;8.084;2023-03-13T02:04:46;94885.69;;;19.44;38.11
66486;BME280;53303;47.476;8.084;2023-03-13T02:07:19;94885.69;;;19.44;38.30
66486;BME280;53303;47.476;8.084;2023-03-13T02:09:48;94894.72;;;19.44;38.33
66486;BME280;53303;47.476;8.084;2023-03-13T02:12:37;94896.28;;;19.39;38.18
66486;BME280;53303;47.476;8.084;2023-03-13T02:15:15;94883.03;;;19.32;38.38
66486;BME280;53303;47.476;8.084;2023-03-13T02:17:41;94832.69;;;19.03;38.29
66486;BME280;53303;47.476;8.084;2023-03-13T02:20:09;94899.00;;;19.45;37.77
66486;BME280;53303;47.476;8.084;2023-03-13T02:25:45;94864.97;;;19.26;38.01
66486;BME280;53303;47.476;8.084;2023-03-13T02:28:30;94872.88;;;19.40;38.20
66486;BME280;53303;47.476;8.084;2023-03-13T02:30:59;94860.78;;;19.44;38.07
66486;BME280;53303;47.476;8.084;2023-03-13T02:33:30;94789.78;;;18.97;38.23
66486;BME280;53303;47.476;8.084;2023-03-13T02:35:58;94803.41;;;19.19;38.14
66486;BME280;53303;47.476;8.084;2023-03-13T02:38:27;94841.41;;;19.44;37.99
66486;BME280;53303;47.476;8.084;2023-03-13T02:40:54;94845.44;;;19.43;38.09
66486;BME280;53303;47.476;8.084;2023-03-13T02:43:29;94836.91;;;19.40;38.09
66486;BME280;53303;47.476;8.084;2023-03-13T02:46:14;94842.91;;;19.45;38.02
66486;BME280;53303;47.476;8.084;2023-03-13T02:48:52;94837.91;;;19.43;38.05
66486;BME280;53303;47.476;8.084;2023-03-13T02:51:29;94820.31;;;19.40;38.16
66486;BME280;53303;47.476;8.084;2023-03-13T02:53:59;94813.31;;;19.34;38.04
66486;BME280;53303;47.476;8.084;2023-03-13T02:56:26;94831.84;;;19.45;38.15
66486;BME280;53303;47.476;8.084;2023-03-13T02:58:52;94816.56;;;19.38;38.01
66486;BME280;53303;47.476;8.084;2023-03-13T03:01:17;94777.81;;;19.13;38.13
66486;BME280;53303;47.476;8.084;2023-03-13T03:03:43;94817.03;;;19.42;38.00
66486;BME280;53303;47.476;8.084;2023-03-13T03:06:08;94773.53;;;19.18;38.11
66486;BME280;53303;47.476;8.084;2023-03-13T03:08:34;94805.69;;;19.46;38.01
66486;BME280;53303;47.476;8.084;2023-03-13T03:11:00;94800.66;;;19.44;38.05
66486;BME280;53303;47.476;8.084;2023-03-13T03:13:26;94800.19;;;19.40;38.27
66486;BME280;53303;47.476;8.084;2023-03-13T03:15:52;94816.97;;;19.48;38.12
66486;BME280;53303;47.476;8.084;2023-03-13T03:18:18;94823.78;;;19.47;37.85
66486;BME280;53303;47.476;8.084;2023-03-13T03:20:46;94816.22;;;19.47;38.10
66486;BME280;53303;47.476;8.084;2023-03-13T03:23:11;94812.72;;;19.47;37.98
66486;BME280;53303;47.476;8.084;2023-03-13T03:25:37;94778.78;;;19.16;38.21
66486;BME280;53303;47.476;8.084;2023-03-13T03:28:02;94824.53;;;19.47;38.02
66486;BME280;53303;47.476;8.084;2023-03-13T03:30:28;94830.06;;;19.47;38.16
66486;BME280;53303;47.476;8.084;2023-03-13T03:32:53;94800.03;;;19.32;37.89
66486;BME280;53303;47.476;8.084;2023-03-13T03:35:19;94825.28;;;19.48;38.13
66486;BME280;53303;47.476;8.084;2023-03-13T03:37:44;94830.81;;;19.48;38.15
66486;BME280;53303;47.476;8.084;2023-03-13T03:40:10;94823.25;;;19.48;38.18
66486;BME280;53303;47.476;8.084;2023-03-13T03:42:36;94815.72;;;19.49;38.05
66486;BME280;53303;47.476;8.084;2023-03-13T03:45:02;94746.13;;;18.84;38.05
66486;BME280;53303;47.476;8.084;2023-03-13T03:47:27;94823.25;;;19.48;38.14
66486;BME280;53303;47.476;8.084;2023-03-13T03:49:53;94789.28;;;19.23;38.01
66486;BME280;53303;47.476;8.084;2023-03-13T03:52:19;94825.28;;;19.48;38.21
66486;BME280;53303;47.476;8.084;2023-03-13T03:54:44;94796.50;;;19.32;38.03
66486;BME280;53303;47.476;8.084;2023-03-13T03:57:10;94777.59;;;19.11;38.24
66486;BME280;53303;47.476;8.084;2023-03-13T03:59:35;94810.53;;;19.39;38.05
66486;BME280;53303;47.476;8.084;2023-03-13T04:02:01;94819.56;;;19.40;38.08
66486;BME280;53303;47.476;8.084;2023-03-13T04:04:26;94823.25;;;19.48;38.15
66486;BME280;53303;47.476;8.084;2023-03-13T04:06:51;94794.03;;;19.28;38.18
66486;BME280;53303;47.476;8.084;2023-03-13T04:09:17;94772.47;;;19.21;38.23
66486;BME280;53303;47.476;8.084;2023-03-13T04:11:42;94750.50;;;19.04;38.23
66486;BME280;53303;47.476;8.084;2023-03-13T04:14:08;94751.75;;;19.03;38.04
66486;BME280;53303;47.476;8.084;2023-03-13T04:16:34;94780.25;;;19.23;38.02
66486;BME280;53303;47.476;8.084;2023-03-13T04:19:00;94747.81;;;18.93;38.09
66486;BME280;53303;47.476;8.084;2023-03-13T04:21:25;94808.16;;;19.49;38.05
66486;BME280;53303;47.476;8.084;2023-03-13T04:23:51;94810.19;;;19.49;38.08
66486;BME280;53303;47.476;8.084;2023-03-13T04:26:16;94756.44;;;19.14;38.17
66486;BME280;53303;47.476;8.084;2023-03-13T04:28:44;94724.47;;;18.94;38.22
66486;BME280;53303;47.476;8.084;2023-03-13T04:31:10;94725.41;;;19.02;38.04
66486;BME280;53303;47.476;8.084;2023-03-13T04:33:35;94727.09;;;19.05;38.13
66486;BME280;53303;47.476;8.084;2023-03-13T04:36:01;94738.38;;;19.13;38.04
66486;BME280;53303;47.476;8.084;2023-03-13T04:38:27;94722.81;;;19.10;38.15
66486;BME280;53303;47.476;8.084;2023-03-13T04:40:52;94753.31;;;19.29;38.04
66486;BME280;53303;47.476;8.084;2023-03-13T04:43:17;94735.34;;;19.11;38.10
66486;BME280;53303;47.476;8.084;2023-03-13T04:45:45;94741.13;;;19.13;38.33
66486;BME280;53303;47.476;8.084;2023-03-13T04:48:11;94789.00;;;19.51;38.08
66486;BME280;53303;47.476;8.084;2023-03-13T04:50:36;94743.31;;;19.20;38.09
66486;BME280;53303;47.476;8.084;2023-03-13T04:53:02;94788.28;;;19.51;38.06
66486;BME280;53303;47.476;8.084;2023-03-13T04:55:27;94773.94;;;19.52;38.12
66486;BME280;53303;47.476;8.084;2023-03-13T04:57:53;94652.38;;;18.61;37.84
66486;BME280;53303;47.476;8.084;2023-03-13T05:00:19;94778.16;;;19.53;38.12
66486;BME280;53303;47.476;8.084;2023-03-13T05:02:44;94763.25;;;19.37;38.33
66486;BME280;53303;47.476;8.084;2023-03-13T05:05:10;94657.09;;;18.67;38.27
66486;BME280;53303;47.476;8.084;2023-03-13T05:07:35;94780.66;;;19.57;38.70
66486;BME280;53303;47.476;8.084;2023-03-13T05:10:01;94781.41;;;19.57;38.80
66486;BME280;53303;47.476;8.084;2023-03-13T05:12:26;94745.91;;;19.37;38.88
66486;BME280;53303;47.476;8.084;2023-03-13T05:14:51;94768.19;;;19.45;38.74
66486;BME280;53303;47.476;8.084;2023-03-13T05:17:17;94728.50;;;19.17;38.96
66486;BME280;53303;47.476;8.084;2023-03-13T05:19:43;94769.88;;;19.53;38.95
66486;BME280;53303;47.476;8.084;2023-03-13T05:22:08;94757.72;;;19.37;39.02
66486;BME280;53303;47.476;8.084;2023-03-13T05:24:34;94782.97;;;19.53;38.81
66486;BME280;53303;47.476;8.084;2023-03-13T05:26:59;94722.22;;;19.17;39.07
66486;BME280;53303;47.476;8.084;2023-03-13T05:29:27;94792.78;;;19.54;38.95
66486;BME280;53303;47.476;8.084;2023-03-13T05:31:52;94750.00;;;19.30;39.06
66486;BME280;53303;47.476;8.084;2023-03-13T05:34:18;94746.78;;;19.26;39.15
66486;BME280;53303;47.476;8.084;2023-03-13T05:36:43;94625.66;;;18.45;39.14
66486;BME280;53303;47.476;8.084;2023-03-13T05:39:13;94786.47;;;19.53;38.95
66486;BME280;53303;47.476;8.084;2023-03-13T05:41:39;94783.31;;;19.44;39.00
66486;BME280;53303;47.476;8.084;2023-03-13T05:44:04;94761.31;;;19.32;38.91
66486;BME280;53303;47.476;8.084;2023-03-13T05:46:29;94777.78;;;19.44;39.05
66486;BME280;53303;47.476;8.084;2023-03-13T05:48:55;94771.75;;;19.45;38.98
66486;BME280;53303;47.476;8.084;2023-03-13T05:51:20;94759.22;;;19.38;39.02
66486;BME280;53303;47.476;8.084;2023-03-13T05:53:46;94716.25;;;19.13;39.06
66486;BME280;53303;47.476;8.084;2023-03-13T05:56:11;94712.25;;;19.08;39.05
66486;BME280;53303;47.476;8.084;2023-03-13T05:58:37;94773.41;;;19.54;38.81
66486;BME280;53303;47.476;8.084;2023-03-13T06:01:10;94721.44;;;19.22;38.94
66486;BME280;53303;47.476;8.084;2023-03-13T06:03:36;94759.59;;;19.48;38.97
66486;BME280;53303;47.476;8.084;2023-03-13T06:06:01;94714.72;;;19.12;38.96
66486;BME280;53303;47.476;8.084;2023-03-13T06:08:27;94778.16;;;19.53;38.94
66486;BME280;53303;47.476;8.084;2023-03-13T06:10:53;94748.16;;;19.38;38.87
66486;BME280;53303;47.476;8.084;2023-03-13T06:13:18;94716.97;;;19.13;38.88
66486;BME280;53303;47.476;8.084;2023-03-13T06:15:52;94747.41;;;19.38;38.90
66486;BME280;53303;47.476;8.084;2023-03-13T06:18:18;94753.69;;;19.38;39.08
66486;BME280;53303;47.476;8.084;2023-03-13T06:20:43;94776.69;;;19.52;38.61
66486;BME280;53303;47.476;8.084;2023-03-13T06:23:09;94758.94;;;19.42;38.84
66486;BME280;53303;47.476;8.084;2023-03-13T06:25:34;94748.00;;;19.31;38.88
66486;BME280;53303;47.476;8.084;2023-03-13T06:28:00;94773.00;;;19.44;38.80
66486;BME280;53303;47.476;8.084;2023-03-13T06:30:25;94747.69;;;19.34;38.86
66486;BME280;53303;47.476;8.084;2023-03-13T06:32:51;94762.91;;;19.47;38.90
66486;BME280;53303;47.476;8.084;2023-03-13T06:35:16;94778.16;;;19.53;38.75
66486;BME280;53303;47.476;8.084;2023-03-13T06:37:44;94739.19;;;19.32;38.93
66486;BME280;53303;47.476;8.084;2023-03-13T06:40:10;94751.28;;;19.54;38.85
66486;BME280;53303;47.476;8.084;2023-03-13T06:42:38;94740.19;;;19.54;38.75
66486;BME280;53303;47.476;8.084;2023-03-13T06:45:06;94713.44;;;19.37;38.83
66486;BME280;53303;47.476;8.084;2023-03-13T06:47:32;94719.69;;;19.44;38.74
66486;BME280;53303;47.476;8.084;2023-03-13T06:49:58;94719.41;;;19.47;38.83
66486;BME280;53303;47.476;8.084;2023-03-13T06:52:23;94729.13;;;19.54;38.76
66486;BME280;53303;47.476;8.084;2023-03-13T06:54:49;94681.50;;;19.17;38.76
66486;BME280;53303;47.476;8.084;2023-03-13T06:57:15;94735.41;;;19.54;38.62
66486;BME280;53303;47.476;8.084;2023-03-13T06:59:40;94709.50;;;19.33;38.56
66486;BME280;53303;47.476;8.084;2023-03-13T07:02:08;94729.94;;;19.49;38.55
66486;BME280;53303;47.476;8.084;2023-03-13T07:04:35;94744.44;;;19.55;38.68
66486;BME280;53303;47.476;8.084;2023-03-13T07:07:00;94666.28;;;19.05;38.68
66486;BME280;53303;47.476;8.084;2023-03-13T07:09:26;94727.19;;;19.49;38.55
66486;BME280;53303;47.476;8.084;2023-03-13T07:11:52;94693.03;;;19.21;38.86
66486;BME280;53303;47.476;8.084;2023-03-13T07:14:17;94725.00;;;19.42;38.69
66486;BME280;53303;47.476;8.084;2023-03-13T07:16:44;94758.50;;;19.57;38.54
66486;BME280;53303;47.476;8.084;2023-03-13T07:19:09;94759.28;;;19.57;38.73
66486;BME280;53303;47.476;8.084;2023-03-13T07:21:35;94743.56;;;19.47;38.50
66486;BME280;53303;47.476;8.084;2023-03-13T07:24:00;94742.78;;;19.46;38.71
66486;BME280;53303;47.476;8.084;2023-03-13T07:26:26;94754.63;;;19.47;38.62
66486;BME280;53303;47.476;8.084;2023-03-13T07:28:51;94738.06;;;19.41;38.58
66486;BME280;53303;47.476;8.084;2023-03-13T07:31:19;94764.81;;;19.57;38.68
66486;BME280;53303;47.476;8.084;2023-03-13T07:33:45;94755.28;;;19.53;38.70
66486;BME280;53303;47.476;8.084;2023-03-13T07:36:12;94745.44;;;19.57;38.61
66486;BME280;53303;47.476;8.084;2023-03-13T07:38:38;94711.97;;;19.36;38.38
66486;BME280;53303;47.476;8.084;2023-03-13T07:41:05;94709.19;;;19.36;38.37
66486;BME280;53303;47.476;8.084;2023-03-13T07:43:31;94671.34;;;19.01;38.43
66486;BME280;53303;47.476;8.084;2023-03-13T07:46:04;94708.47;;;19.36;38.42
66486;BME280;53303;47.476;8.084;2023-03-13T07:48:35;94705.41;;;19.39;38.58
66486;BME280;53303;47.476;8.084;2023-03-13T07:51:01;94696.69;;;19.30;38.64
66486;BME280;53303;47.476;8.084;2023-03-13T07:53:27;94733.31;;;19.60;38.41
66486;BME280;53303;47.476;8.084;2023-03-13T07:58:24;94736.84;;;19.61;38.38
66486;BME280;53303;47.476;8.084;2023-03-13T08:00:50;94743.13;;;19.62;38.48
66486;BME280;53303;47.476;8.084;2023-03-13T08:03:16;94725.38;;;19.51;38.38
66486;BME280;53303;47.476;8.084;2023-03-13T08:05:41;94747.41;;;19.63;38.47
66486;BME280;53303;47.476;8.084;2023-03-13T08:08:07;94744.63;;;19.63;38.26
66486;BME280;53303;47.476;8.084;2023-03-13T08:10:32;94717.06;;;19.51;38.60
66486;BME280;53303;47.476;8.084;2023-03-13T08:12:58;94732.78;;;19.62;38.33
66486;BME280;53303;47.476;8.084;2023-03-13T08:15:23;94720.31;;;19.55;38.50
66486;BME280;53303;47.476;8.084;2023-03-13T08:17:53;94715.31;;;19.54;38.49
66486;BME280;53303;47.476;8.084;2023-03-13T08:20:19;94689.38;;;19.32;38.39
66486;BME280;53303;47.476;8.084;2023-03-13T08:22:48;94721.22;;;19.64;38.53
66486;BME280;53303;47.476;8.084;2023-03-13T08:25:15;94687.44;;;19.46;38.52
66486;BME280;53303;47.476;8.084;2023-03-13T08:27:40;94690.50;;;19.43;38.31
66486;BME280;53303;47.476;8.084;2023-03-13T08:30:06;94710.66;;;19.62;38.48
66486;BME280;53303;47.476;8.084;2023-03-13T08:32:34;94705.34;;;19.64;38.44
66486;BME280;53303;47.476;8.084;2023-03-13T08:34:59;94682.00;;;19.40;38.39
66486;BME280;53303;47.476;8.084;2023-03-13T08:37:25;94694.28;;;19.64;38.50
66486;BME280;53303;47.476;8.084;2023-03-13T08:39:50;94703.34;;;19.65;38.37
66486;BME280;53303;47.476;8.084;2023-03-13T08:42:16;94683.56;;;19.55;38.45
66486;BME280;53303;47.476;8.084;2023-03-13T08:44:41;94704.09;;;19.65;38.34
66486;BME280;53303;47.476;8.084;2023-03-13T08:47:07;94686.22;;;19.66;38.43
66486;BME280;53303;47.476;8.084;2023-03-13T08:49:32;94680.69;;;19.66;38.32
66486;BME280;53303;47.476;8.084;2023-03-13T08:51:58;94665.94;;;19.58;38.47
66486;BME280;53303;47.476;8.084;2023-03-13T08:54:24;94682.16;;;19.67;38.26
66486;BME280;53303;47.476;8.084;2023-03-13T08:56:50;94668.47;;;19.56;38.36
66486;BME280;53303;47.476;8.084;2023-03-13T08:59:15;94673.41;;;19.63;38.57
66486;BME280;53303;47.476;8.084;2023-03-13T09:01:41;94665.56;;;19.67;38.24
66486;BME280;53303;47.476;8.084;2023-03-13T09:04:07;94647.38;;;19.53;38.36
66486;BME280;53303;47.476;8.084;2023-03-13T09:06:34;94597.34;;;19.32;38.33
66486;BME280;53303;47.476;8.084;2023-03-13T09:09:00;94643.06;;;19.57;38.27
66486;BME280;53303;47.476;8.084;2023-03-13T09:11:26;94628.69;;;19.40;38.39
66486;BME280;53303;47.476;8.084;2023-03-13T09:13:54;94639.53;;;19.57;38.33
66486;BME280;53303;47.476;8.084;2023-03-13T09:16:24;94625.53;;;19.49;38.31
66486;BME280;53303;47.476;8.084;2023-03-13T09:18:50;94656.97;;;19.71;38.33
66486;BME280;53303;47.476;8.084;2023-03-13T09:21:19;94658.47;;;19.72;38.24
66486;BME280;53303;47.476;8.084;2023-03-13T09:23:45;94644.63;;;19.72;38.34
66486;BME280;53303;47.476;8.084;2023-03-13T09:26:12;94642.84;;;19.74;38.28
66486;BME280;53303;47.476;8.084;2023-03-13T09:28:38;94633.06;;;19.73;38.21
66486;BME280;53303;47.476;8.084;2023-03-13T09:31:14;94618.72;;;19.69;38.23
66486;BME280;53303;47.476;8.084;2023-03-13T09:33:41;94598.19;;;19.65;38.24
66486;BME280;53303;47.476;8.084;2023-03-13T09:36:07;94594.66;;;19.64;38.43
66486;BME280;53303;47.476;8.084;2023-03-13T09:38:34;94590.84;;;19.67;38.25
66486;BME280;53303;47.476;8.084;2023-03-13T09:45:05;94589.28;;;19.72;38.34
66486;BME280;53303;47.476;8.084;2023-03-13T09:47:05;94577.97;;;19.70;38.34
66486;BME280;53303;47.476;8.084;2023-03-13T09:49:42;94591.75;;;19.75;38.25
66486;BME280;53303;47.476;8.084;2023-03-13T09:52:29;94557.88;;;19.50;38.19
66486;BME280;53303;47.476;8.084;2023-03-13T09:54:59;94586.59;;;19.66;38.11
66486;BME280;53303;47.476;8.084;2023-03-13T09:58:16;94569.44;;;19.68;38.29
66486;BME280;53303;47.476;8.084;2023-03-13T10:00:31;94578.13;;;19.77;38.30
66486;BME280;53303;47.476;8.084;2023-03-13T10:03:13;94549.94;;;19.60;38.24
66486;BME280;53303;47.476;8.084;2023-03-13T10:06:01;94557.03;;;19.74;38.28
66486;BME280;53303;47.476;8.084;2023-03-13T10:08:33;94539.00;;;19.68;38.25
66486;BME280;53303;47.476;8.084;2023-03-13T10:11:03;94537.56;;;19.80;38.14
66486;BME280;53303;47.476;8.084;2023-03-13T10:13:35;94539.81;;;19.82;38.09
66486;BME280;53303;47.476;8.084;2023-03-13T10:16:48;94528.31;;;19.77;38.31
66486;BME280;53303;47.476;8.084;2023-03-13T10:19:25;94543.88;;;19.81;38.19
66486;BME280;53303;47.476;8.084;2023-03-13T10:21:53;94541.31;;;19.83;38.29
66486;BME280;53303;47.476;8.084;2023-03-13T10:24:37;94535.88;;;19.77;38.19
66486;BME280;53303;47.476;8.084;2023-03-13T10:27:04;94531.72;;;19.84;38.32
66486;BME280;53303;47.476;8.084;2023-03-13T10:29:30;94513.50;;;19.75;38.29
66486;BME280;53303;47.476;8.084;2023-03-13T10:32:00;94512.03;;;19.87;38.26
66486;BME280;53303;47.476;8.084;2023-03-13T10:37:13;94506.50;;;19.87;37.97
66486;BME280;53303;47.476;8.084;2023-03-13T10:39:38;94438.44;;;19.46;38.29
66486;BME280;53303;47.476;8.084;2023-03-13T10:42:09;94494.91;;;19.89;38.19
66486;BME280;53303;47.476;8.084;2023-03-13T10:44:35;94488.09;;;19.90;38.15
66486;BME280;53303;47.476;8.084;2023-03-13T10:47:02;94463.94;;;19.90;38.25
66486;BME280;53303;47.476;8.084;2023-03-13T10:49:30;94431.47;;;19.58;38.37
66486;BME280;53303;47.476;8.084;2023-03-13T10:52:03;94466.69;;;19.90;38.12
66486;BME280;53303;47.476;8.084;2023-03-13T10:54:32;94466.69;;;19.90;38.28
66486;BME280;53303;47.476;8.084;2023-03-13T10:59:47;94438.69;;;19.81;38.20
66486;BME280;53303;47.476;8.084;2023-03-13T11:02:35;94438.91;;;19.83;38.04
66486;BME280;53303;47.476;8.084;2023-03-13T11:07:48;94435.94;;;19.94;38.30
66486;BME280;53303;47.476;8.084;2023-03-13T11:12:53;94409.72;;;19.82;38.22
66486;BME280;53303;47.476;8.084;2023-03-13T11:15:46;94406.84;;;19.74;38.16
66486;BME280;53303;47.476;8.084;2023-03-13T11:21:07;94421.03;;;19.97;38.25
66486;BME280;53303;47.476;8.084;2023-03-13T11:23:42;94427.22;;;19.90;38.16
66486;BME280;53303;47.476;8.084;2023-03-13T11:31:46;94402.59;;;20.00;38.40
66486;BME280;53303;47.476;8.084;2023-03-13T11:40:17;94386.53;;;19.98;38.16
66486;BME280;53303;47.476;8.084;2023-03-13T11:57:18;94344.44;;;20.00;37.92
66486;BME280;53303;47.476;8.084;2023-03-13T12:02:47;94350.84;;;20.08;38.20
66486;BME280;53303;47.476;8.084;2023-03-13T12:05:17;94332.41;;;20.10;38.13
66486;BME280;53303;47.476;8.084;2023-03-13T12:08:00;94328.38;;;20.11;38.08
66486;BME280;53303;47.476;8.084;2023-03-13T12:10:37;94340.19;;;20.12;38.10
66486;BME280;53303;47.476;8.084;2023-03-13T12:15:53;94275.69;;;19.90;38.18
66486;BME280;53303;47.476;8.084;2023-03-13T12:18:30;94305.25;;;20.09;38.11
66486;BME280;53303;47.476;8.084;2023-03-13T12:21:16;94303.25;;;20.09;37.98
66486;BME280;53303;47.476;8.084;2023-03-13T12:27:30;94337.53;;;20.20;38.08
66486;BME280;53303;47.476;8.084;2023-03-13T12:32:55;94286.59;;;20.23;38.12
66486;BME280;53303;47.476;8.084;2023-03-13T12:34:59;94289.56;;;20.25;38.08
66486;BME280;53303;47.476;8.084;2023-03-13T12:37:49;94286.78;;;20.25;38.02
66486;BME280;53303;47.476;8.084;2023-03-13T12:40:22;94267.84;;;20.29;38.13
66486;BME280;53303;47.476;8.084;2023-03-13T12:42:56;94254.94;;;20.31;38.01
66486;BME280;53303;47.476;8.084;2023-03-13T12:45:24;94249.59;;;20.33;37.98
66486;BME280;53303;47.476;8.084;2023-03-13T12:53:09;94219.00;;;20.39;37.96
66486;BME280;53303;47.476;8.084;2023-03-13T13:01:00;94213.88;;;20.43;37.96
66486;BME280;53303;47.476;8.084;2023-03-13T13:03:39;94218.13;;;20.44;37.75
66486;BME280;53303;47.476;8.084;2023-03-13T13:06:12;94210.03;;;20.46;37.75
66486;BME280;53303;47.476;8.084;2023-03-13T13:08:43;94187.91;;;20.33;37.70
66486;BME280;53303;47.476;8.084;2023-03-13T13:16:50;94192.94;;;20.56;37.73
66486;BME280;53303;47.476;8.084;2023-03-13T13:24:52;94154.97;;;20.43;37.76
66486;BME280;53303;47.476;8.084;2023-03-13T13:29:58;94170.66;;;20.61;37.75
66486;BME280;53303;47.476;8.084;2023-03-13T13:32:34;94156.25;;;20.63;37.63
66486;BME280;53303;47.476;8.084;2023-03-13T13:35:24;94134.28;;;20.65;37.67
66486;BME280;53303;47.476;8.084;2023-03-13T13:37:51;94079.72;;;20.39;37.49
66486;BME280;53303;47.476;8.084;2023-03-13T13:40:25;94128.59;;;20.70;37.62
66486;BME280;53303;47.476;8.084;2023-03-13T13:43:00;94136.38;;;20.72;37.74
66486;BME280;53303;47.476;8.084;2023-03-13T13:45:36;94119.94;;;20.74;37.41
66486;BME280;53303;47.476;8.084;2023-03-13T13:56:33;94097.91;;;20.68;37.51
66486;BME280;53303;47.476;8.084;2023-03-13T13:59:26;94097.06;;;20.81;37.51
66486;BME280;53303;47.476;8.084;2023-03-13T14:04:41;94109.69;;;20.90;37.38
66486;BME280;53303;47.476;8.084;2023-03-13T14:07:27;94080.28;;;20.87;37.50
66486;BME280;53303;47.476;8.084;2023-03-13T14:10:06;94075.28;;;20.85;37.36
66486;BME280;53303;47.476;8.084;2023-03-13T14:12:46;94075.00;;;20.97;37.27
66486;BME280;53303;47.476;8.084;2023-03-13T14:17:49;94064.31;;;21.08;37.09
66486;BME280;53303;47.476;8.084;2023-03-13T14:20:22;94080.59;;;21.12;37.16
66486;BME280;53303;47.476;8.084;2023-03-13T14:22:49;94078.06;;;21.14;37.11
66486;BME280;53303;47.476;8.084;2023-03-13T14:25:15;94048.72;;;20.98;37.32
66486;BME280;53303;47.476;8.084;2023-03-13T14:27:46;94078.59;;;21.13;37.14
66486;BME280;53303;47.476;8.084;2023-03-13T14:30:15;94059.13;;;21.05;37.29
66486;BME280;53303;47.476;8.084;2023-03-13T14:32:41;94046.50;;;20.96;37.17
66486;BME280;53303;47.476;8.084;2023-03-13T14:35:09;94042.34;;;21.10;37.33
66486;BME280;53303;47.476;8.084;2023-03-13T14:37:43;94040.84;;;21.09;37.31
66486;BME280;53303;47.476;8.084;2023-03-13T14:40:32;94021.34;;;20.94;37.46
66486;BME280;53303;47.476;8.084;2023-03-13T14:42:59;93984.81;;;20.67;37.53
66486;BME280;53303;47.476;8.084;2023-03-13T14:45:31;94033.25;;;21.10;37.29
66486;BME280;53303;47.476;8.084;2023-03-13T14:48:02;93967.84;;;20.70;37.36
66486;BME280;53303;47.476;8.084;2023-03-13T14:50:28;94018.50;;;21.15;37.32